TAF and METAR

METAR for Tindouf Airport

DAOF 011300Z 27012KT CAVOK 27/M05 Q1014
Report created 1. apr 15:00
wind 12 knots from W (270°) Clear sky Temperature 27° with dewpoint at -5° (Humidity 11.85%) Pressure 1014 hPa

TAF for Tindouf Airport

TAF DAOF 011100Z 0112/0121 28015KT CAVOK
Report created 1. apr 13:00

between 1. apr 14:00 - 1. apr 23:00

wind 15 knots from W (280°) Clear sky